sensor_id;sensor_type;location;lat;lon;timestamp;temperature;humidity
55064;DHT22;40963;52.168;21.296;2023-05-23T00:01:01;10.20;99.90
55064;DHT22;40963;52.168;21.296;2023-05-23T00:03:27;10.20;99.90
55064;DHT22;40963;52.168;21.296;2023-05-23T00:05:55;10.20;99.90
55064;DHT22;40963;52.168;21.296;2023-05-23T00:08:21;10.20;99.90
55064;DHT22;40963;52.168;21.296;2023-05-23T00:10:47;10.10;99.90
55064;DHT22;40963;52.168;21.296;2023-05-23T00:13:12;10.10;99.90
55064;DHT22;40963;52.168;21.296;2023-05-23T00:15:39;10.10;99.90
55064;DHT22;40963;52.168;21.296;2023-05-23T00:18:05;10.10;99.90
55064;DHT22;40963;52.168;21.296;2023-05-23T00:20:33;10.00;99.90
55064;DHT22;40963;52.168;21.296;2023-05-23T00:23:01;10.00;99.90
55064;DHT22;40963;52.168;21.296;2023-05-23T00:25:28;10.00;99.90
55064;DHT22;40963;52.168;21.296;2023-05-23T00:28:02;9.90;99.90
55064;DHT22;40963;52.168;21.296;2023-05-23T00:30:30;9.90;99.90
55064;DHT22;40963;52.168;21.296;2023-05-23T00:32:56;9.90;99.90
55064;DHT22;40963;52.168;21.296;2023-05-23T00:35:22;9.90;99.90
55064;DHT22;40963;52.168;21.296;2023-05-23T00:37:50;9.90;99.90
55064;DHT22;40963;52.168;21.296;2023-05-23T00:40:19;9.90;99.90
55064;DHT22;40963;52.168;21.296;2023-05-23T00:42:45;9.80;99.90
55064;DHT22;40963;52.168;21.296;2023-05-23T00:45:12;9.80;99.90
55064;DHT22;40963;52.168;21.296;2023-05-23T00:47:41;9.80;99.90
55064;DHT22;40963;52.168;21.296;2023-05-23T00:50:08;9.70;99.90
55064;DHT22;40963;52.168;21.296;2023-05-23T00:52:36;9.70;99.90
55064;DHT22;40963;52.168;21.296;2023-05-23T00:55:02;9.60;99.90
55064;DHT22;40963;52.168;21.296;2023-05-23T00:57:27;9.60;99.90
55064;DHT22;40963;52.168;21.296;2023-05-23T00:59:53;9.60;99.90
55064;DHT22;40963;52.168;21.296;2023-05-23T01:02:19;9.60;99.90
55064;DHT22;40963;52.168;21.296;2023-05-23T01:04:48;9.60;99.90
55064;DHT22;40963;52.168;21.296;2023-05-23T01:07:19;9.60;99.90
55064;DHT22;40963;52.168;21.296;2023-05-23T01:09:45;9.50;99.90
55064;DHT22;40963;52.168;21.296;2023-05-23T01:14:55;9.50;99.90
55064;DHT22;40963;52.168;21.296;2023-05-23T01:17:56;9.60;99.90
55064;DHT22;40963;52.168;21.296;2023-05-23T01:20:27;9.50;99.90
55064;DHT22;40963;52.168;21.296;2023-05-23T01:28:27;9.40;99.90
55064;DHT22;40963;52.168;21.296;2023-05-23T01:30:57;9.40;99.90
55064;DHT22;40963;52.168;21.296;2023-05-23T01:33:24;9.40;99.90
55064;DHT22;40963;52.168;21.296;2023-05-23T01:35:50;9.40;99.90
55064;DHT22;40963;52.168;21.296;2023-05-23T01:38:16;9.40;99.90
55064;DHT22;40963;52.168;21.296;2023-05-23T01:40:42;9.40;99.90
55064;DHT22;40963;52.168;21.296;2023-05-23T01:43:07;9.30;99.90
55064;DHT22;40963;52.168;21.296;2023-05-23T01:45:33;9.30;99.90
55064;DHT22;40963;52.168;21.296;2023-05-23T01:47:59;9.30;99.90
55064;DHT22;40963;52.168;21.296;2023-05-23T01:50:27;9.30;99.90
55064;DHT22;40963;52.168;21.296;2023-05-23T01:52:53;9.30;99.90
55064;DHT22;40963;52.168;21.296;2023-05-23T01:55:20;9.30;99.90
55064;DHT22;40963;52.168;21.296;2023-05-23T01:57:52;9.30;99.90
55064;DHT22;40963;52.168;21.296;2023-05-23T02:00:19;9.20;99.90
55064;DHT22;40963;52.168;21.296;2023-05-23T02:02:45;9.20;99.90
55064;DHT22;40963;52.168;21.296;2023-05-23T02:05:11;9.10;99.90
55064;DHT22;40963;52.168;21.296;2023-05-23T02:07:37;9.10;99.90
55064;DHT22;40963;52.168;21.296;2023-05-23T02:10:03;9.10;99.90
55064;DHT22;40963;52.168;21.296;2023-05-23T02:12:29;9.10;99.90
55064;DHT22;40963;52.168;21.296;2023-05-23T02:14:54;9.10;99.90
55064;DHT22;40963;52.168;21.296;2023-05-23T02:17:20;9.10;99.90
55064;DHT22;40963;52.168;21.296;2023-05-23T02:19:49;9.10;99.90
55064;DHT22;40963;52.168;21.296;2023-05-23T02:22:15;9.00;99.90
55064;DHT22;40963;52.168;21.296;2023-05-23T02:24:41;9.00;99.90
55064;DHT22;40963;52.168;21.296;2023-05-23T02:27:06;8.90;99.90
55064;DHT22;40963;52.168;21.296;2023-05-23T02:29:32;9.00;99.90
55064;DHT22;40963;52.168;21.296;2023-05-23T02:31:58;8.90;99.90
55064;DHT22;40963;52.168;21.296;2023-05-23T02:34:23;9.00;99.90
55064;DHT22;40963;52.168;21.296;2023-05-23T02:36:49;8.90;99.90
55064;DHT22;40963;52.168;21.296;2023-05-23T02:39:16;8.90;99.90
55064;DHT22;40963;52.168;21.296;2023-05-23T02:41:41;8.90;99.90
55064;DHT22;40963;52.168;21.296;2023-05-23T02:44:07;8.90;99.90
55064;DHT22;40963;52.168;21.296;2023-05-23T02:46:33;8.90;99.90
55064;DHT22;40963;52.168;21.296;2023-05-23T02:48:58;8.90;99.90
55064;DHT22;40963;52.168;21.296;2023-05-23T02:51:24;8.90;99.90
55064;DHT22;40963;52.168;21.296;2023-05-23T02:53:50;8.90;99.90
55064;DHT22;40963;52.168;21.296;2023-05-23T02:56:16;8.80;99.90
55064;DHT22;40963;52.168;21.296;2023-05-23T02:58:41;8.90;99.90
55064;DHT22;40963;52.168;21.296;2023-05-23T03:01:07;8.80;99.90
55064;DHT22;40963;52.168;21.296;2023-05-23T03:03:33;8.80;99.90
55064;DHT22;40963;52.168;21.296;2023-05-23T03:05:59;8.80;99.90
55064;DHT22;40963;52.168;21.296;2023-05-23T03:08:25;8.80;99.90
55064;DHT22;40963;52.168;21.296;2023-05-23T03:10:51;8.80;99.90
55064;DHT22;40963;52.168;21.296;2023-05-23T03:13:17;8.90;99.90
55064;DHT22;40963;52.168;21.296;2023-05-23T03:15:43;8.90;99.90
55064;DHT22;40963;52.168;21.296;2023-05-23T03:18:08;8.80;99.90
55064;DHT22;40963;52.168;21.296;2023-05-23T03:20:34;8.80;99.90
55064;DHT22;40963;52.168;21.296;2023-05-23T03:22:59;8.80;99.90
55064;DHT22;40963;52.168;21.296;2023-05-23T03:25:25;8.80;99.90
55064;DHT22;40963;52.168;21.296;2023-05-23T03:27:51;8.80;99.90
55064;DHT22;40963;52.168;21.296;2023-05-23T03:30:17;8.90;99.90
55064;DHT22;40963;52.168;21.296;2023-05-23T03:32:42;8.90;99.90
55064;DHT22;40963;52.168;21.296;2023-05-23T03:35:08;8.90;99.90
55064;DHT22;40963;52.168;21.296;2023-05-23T03:37:34;8.90;99.90
55064;DHT22;40963;52.168;21.296;2023-05-23T03:40:00;9.00;99.90
55064;DHT22;40963;52.168;21.296;2023-05-23T03:42:27;9.00;99.90
55064;DHT22;40963;52.168;21.296;2023-05-23T03:44:52;9.10;99.90
55064;DHT22;40963;52.168;21.296;2023-05-23T03:47:18;9.10;99.90
55064;DHT22;40963;52.168;21.296;2023-05-23T03:49:43;9.20;99.90
55064;DHT22;40963;52.168;21.296;2023-05-23T03:52:09;9.20;99.90
55064;DHT22;40963;52.168;21.296;2023-05-23T03:54:35;9.20;99.90
55064;DHT22;40963;52.168;21.296;2023-05-23T03:57:01;9.30;99.90
55064;DHT22;40963;52.168;21.296;2023-05-23T03:59:27;9.40;99.90
55064;DHT22;40963;52.168;21.296;2023-05-23T04:01:53;9.40;99.90
55064;DHT22;40963;52.168;21.296;2023-05-23T04:04:19;9.50;99.90
55064;DHT22;40963;52.168;21.296;2023-05-23T04:06:49;9.60;99.90
55064;DHT22;40963;52.168;21.296;2023-05-23T04:09:15;9.60;99.90
55064;DHT22;40963;52.168;21.296;2023-05-23T04:11:41;9.70;99.90
55064;DHT22;40963;52.168;21.296;2023-05-23T04:14:07;9.80;99.90
55064;DHT22;40963;52.168;21.296;2023-05-23T04:16:33;9.90;99.90
55064;DHT22;40963;52.168;21.296;2023-05-23T04:19:00;9.90;99.90
55064;DHT22;40963;52.168;21.296;2023-05-23T04:21:26;10.00;99.90
55064;DHT22;40963;52.168;21.296;2023-05-23T04:23:52;10.10;99.90
55064;DHT22;40963;52.168;21.296;2023-05-23T04:26:18;10.20;99.90
55064;DHT22;40963;52.168;21.296;2023-05-23T04:28:45;10.30;99.90
55064;DHT22;40963;52.168;21.296;2023-05-23T04:31:11;10.50;99.90
55064;DHT22;40963;52.168;21.296;2023-05-23T04:33:37;10.50;99.90
55064;DHT22;40963;52.168;21.296;2023-05-23T04:36:03;10.70;99.90
55064;DHT22;40963;52.168;21.296;2023-05-23T04:38:29;10.80;99.90
55064;DHT22;40963;52.168;21.296;2023-05-23T04:40:54;10.90;99.90
55064;DHT22;40963;52.168;21.296;2023-05-23T04:43:22;11.00;99.90
55064;DHT22;40963;52.168;21.296;2023-05-23T04:45:51;11.10;99.90
55064;DHT22;40963;52.168;21.296;2023-05-23T04:48:18;11.30;99.90
55064;DHT22;40963;52.168;21.296;2023-05-23T04:50:46;11.40;99.90
55064;DHT22;40963;52.168;21.296;2023-05-23T04:53:13;11.50;99.90
55064;DHT22;40963;52.168;21.296;2023-05-23T04:55:38;11.70;99.90
55064;DHT22;40963;52.168;21.296;2023-05-23T04:58:04;11.90;99.90
55064;DHT22;40963;52.168;21.296;2023-05-23T05:00:29;12.00;99.90
55064;DHT22;40963;52.168;21.296;2023-05-23T05:02:55;12.20;99.90
55064;DHT22;40963;52.168;21.296;2023-05-23T05:05:20;12.40;99.90
55064;DHT22;40963;52.168;21.296;2023-05-23T05:07:46;12.50;99.90
55064;DHT22;40963;52.168;21.296;2023-05-23T05:10:12;12.70;99.90
55064;DHT22;40963;52.168;21.296;2023-05-23T05:12:45;12.90;99.90
55064;DHT22;40963;52.168;21.296;2023-05-23T05:15:11;13.00;99.90
55064;DHT22;40963;52.168;21.296;2023-05-23T05:17:38;13.20;99.90
55064;DHT22;40963;52.168;21.296;2023-05-23T05:20:04;13.40;99.90
55064;DHT22;40963;52.168;21.296;2023-05-23T05:22:36;13.50;99.90
55064;DHT22;40963;52.168;21.296;2023-05-23T05:25:05;13.70;99.90
55064;DHT22;40963;52.168;21.296;2023-05-23T05:27:32;13.80;99.90
55064;DHT22;40963;52.168;21.296;2023-05-23T05:29:57;14.00;99.90
55064;DHT22;40963;52.168;21.296;2023-05-23T05:32:28;14.10;99.90
55064;DHT22;40963;52.168;21.296;2023-05-23T05:34:55;14.30;99.90
55064;DHT22;40963;52.168;21.296;2023-05-23T05:37:21;14.50;99.90
55064;DHT22;40963;52.168;21.296;2023-05-23T05:39:47;14.60;99.90
55064;DHT22;40963;52.168;21.296;2023-05-23T05:42:12;14.80;99.90
55064;DHT22;40963;52.168;21.296;2023-05-23T05:44:38;15.00;99.90
55064;DHT22;40963;52.168;21.296;2023-05-23T05:47:04;15.10;99.90
55064;DHT22;40963;52.168;21.296;2023-05-23T05:49:29;15.20;99.90
55064;DHT22;40963;52.168;21.296;2023-05-23T05:51:55;15.40;99.90
55064;DHT22;40963;52.168;21.296;2023-05-23T05:54:21;15.50;99.90
55064;DHT22;40963;52.168;21.296;2023-05-23T05:56:46;15.70;99.90
55064;DHT22;40963;52.168;21.296;2023-05-23T05:59:12;15.90;99.90
55064;DHT22;40963;52.168;21.296;2023-05-23T06:01:37;16.10;99.90
55064;DHT22;40963;52.168;21.296;2023-05-23T06:04:03;16.30;99.90
55064;DHT22;40963;52.168;21.296;2023-05-23T06:06:29;16.50;99.90
55064;DHT22;40963;52.168;21.296;2023-05-23T06:08:54;16.60;99.90
55064;DHT22;40963;52.168;21.296;2023-05-23T06:11:20;16.80;99.90
55064;DHT22;40963;52.168;21.296;2023-05-23T06:13:45;16.90;99.90
55064;DHT22;40963;52.168;21.296;2023-05-23T06:16:11;17.10;98.80
55064;DHT22;40963;52.168;21.296;2023-05-23T06:18:36;17.20;98.00
55064;DHT22;40963;52.168;21.296;2023-05-23T06:21:02;17.30;96.30
55064;DHT22;40963;52.168;21.296;2023-05-23T06:23:28;17.40;95.40
55064;DHT22;40963;52.168;21.296;2023-05-23T06:25:53;17.60;94.50
55064;DHT22;40963;52.168;21.296;2023-05-23T06:28:19;17.70;92.70
55064;DHT22;40963;52.168;21.296;2023-05-23T06:30:44;17.80;92.20
55064;DHT22;40963;52.168;21.296;2023-05-23T06:33:10;18.00;91.70
55064;DHT22;40963;52.168;21.296;2023-05-23T06:35:36;18.10;91.10
55064;DHT22;40963;52.168;21.296;2023-05-23T06:38:02;18.20;90.20
55064;DHT22;40963;52.168;21.296;2023-05-23T06:40:27;18.30;89.00
55064;DHT22;40963;52.168;21.296;2023-05-23T06:42:53;18.50;87.10
55064;DHT22;40963;52.168;21.296;2023-05-23T06:45:19;18.60;86.10
55064;DHT22;40963;52.168;21.296;2023-05-23T06:47:44;18.70;85.00
55064;DHT22;40963;52.168;21.296;2023-05-23T06:50:12;18.90;84.20
55064;DHT22;40963;52.168;21.296;2023-05-23T06:52:37;19.00;82.70
55064;DHT22;40963;52.168;21.296;2023-05-23T06:55:03;19.10;81.20
55064;DHT22;40963;52.168;21.296;2023-05-23T06:57:29;19.20;79.50
55064;DHT22;40963;52.168;21.296;2023-05-23T06:59:55;19.30;77.80
55064;DHT22;40963;52.168;21.296;2023-05-23T07:02:21;19.40;76.60
55064;DHT22;40963;52.168;21.296;2023-05-23T07:04:47;19.60;75.90
55064;DHT22;40963;52.168;21.296;2023-05-23T07:07:12;19.80;74.50
55064;DHT22;40963;52.168;21.296;2023-05-23T07:09:38;19.80;72.30
55064;DHT22;40963;52.168;21.296;2023-05-23T07:12:05;19.90;70.30
55064;DHT22;40963;52.168;21.296;2023-05-23T07:14:30;20.10;69.40
55064;DHT22;40963;52.168;21.296;2023-05-23T07:16:56;20.20;68.10
55064;DHT22;40963;52.168;21.296;2023-05-23T07:19:22;20.30;67.50
55064;DHT22;40963;52.168;21.296;2023-05-23T07:21:47;20.50;66.40
55064;DHT22;40963;52.168;21.296;2023-05-23T07:24:13;20.60;65.40
55064;DHT22;40963;52.168;21.296;2023-05-23T07:26:38;20.70;63.40
55064;DHT22;40963;52.168;21.296;2023-05-23T07:29:04;20.80;61.70
55064;DHT22;40963;52.168;21.296;2023-05-23T07:31:30;20.90;60.40
55064;DHT22;40963;52.168;21.296;2023-05-23T07:33:55;21.00;59.30
55064;DHT22;40963;52.168;21.296;2023-05-23T07:36:21;21.10;58.60
55064;DHT22;40963;52.168;21.296;2023-05-23T07:38:47;21.20;58.10
55064;DHT22;40963;52.168;21.296;2023-05-23T07:41:13;21.30;58.10
55064;DHT22;40963;52.168;21.296;2023-05-23T07:43:39;21.40;57.80
55064;DHT22;40963;52.168;21.296;2023-05-23T07:46:05;21.50;56.80
55064;DHT22;40963;52.168;21.296;2023-05-23T07:48:30;21.60;56.50
55064;DHT22;40963;52.168;21.296;2023-05-23T07:50:56;21.70;56.50
55064;DHT22;40963;52.168;21.296;2023-05-23T07:53:21;21.80;55.50
55064;DHT22;40963;52.168;21.296;2023-05-23T07:55:47;21.80;54.10
55064;DHT22;40963;52.168;21.296;2023-05-23T07:58:13;21.90;53.90
55064;DHT22;40963;52.168;21.296;2023-05-23T08:00:38;22.00;53.90
55064;DHT22;40963;52.168;21.296;2023-05-23T08:03:06;22.10;53.40
55064;DHT22;40963;52.168;21.296;2023-05-23T08:05:32;22.20;52.60
55064;DHT22;40963;52.168;21.296;2023-05-23T08:07:57;22.20;51.90
55064;DHT22;40963;52.168;21.296;2023-05-23T08:10:23;22.30;51.70
55064;DHT22;40963;52.168;21.296;2023-05-23T08:12:50;22.30;51.30
55064;DHT22;40963;52.168;21.296;2023-05-23T08:15:16;22.40;51.30
55064;DHT22;40963;52.168;21.296;2023-05-23T08:17:41;22.50;51.30
55064;DHT22;40963;52.168;21.296;2023-05-23T08:20:07;22.60;51.00
55064;DHT22;40963;52.168;21.296;2023-05-23T08:22:34;22.60;50.90
55064;DHT22;40963;52.168;21.296;2023-05-23T08:25:00;22.70;51.10
55064;DHT22;40963;52.168;21.296;2023-05-23T08:27:27;22.70;51.10
55064;DHT22;40963;52.168;21.296;2023-05-23T08:29:54;22.80;51.10
55064;DHT22;40963;52.168;21.296;2023-05-23T08:32:20;22.90;50.60
55064;DHT22;40963;52.168;21.296;2023-05-23T08:34:45;22.90;50.10
55064;DHT22;40963;52.168;21.296;2023-05-23T08:37:11;23.00;49.70
55064;DHT22;40963;52.168;21.296;2023-05-23T08:39:36;23.00;49.00
55064;DHT22;40963;52.168;21.296;2023-05-23T08:42:02;23.00;48.00
55064;DHT22;40963;52.168;21.296;2023-05-23T08:44:28;23.00;48.40
55064;DHT22;40963;52.168;21.296;2023-05-23T08:46:54;23.00;48.70
55064;DHT22;40963;52.168;21.296;2023-05-23T08:49:21;23.00;49.00
55064;DHT22;40963;52.168;21.296;2023-05-23T08:51:51;23.10;49.10
55064;DHT22;40963;52.168;21.296;2023-05-23T08:54:18;23.10;48.90
55064;DHT22;40963;52.168;21.296;2023-05-23T08:56:46;23.20;48.70
55064;DHT22;40963;52.168;21.296;2023-05-23T08:59:12;23.20;48.60
55064;DHT22;40963;52.168;21.296;2023-05-23T09:01:40;23.30;48.50
55064;DHT22;40963;52.168;21.296;2023-05-23T09:04:06;23.30;48.10
55064;DHT22;40963;52.168;21.296;2023-05-23T09:06:31;23.40;48.70
55064;DHT22;40963;52.168;21.296;2023-05-23T09:08:57;23.50;48.10
55064;DHT22;40963;52.168;21.296;2023-05-23T09:11:23;23.50;47.40
55064;DHT22;40963;52.168;21.296;2023-05-23T09:13:49;23.50;46.80
55064;DHT22;40963;52.168;21.296;2023-05-23T09:16:15;23.40;46.70
55064;DHT22;40963;52.168;21.296;2023-05-23T09:18:43;23.40;46.70
55064;DHT22;40963;52.168;21.296;2023-05-23T09:21:10;23.50;46.70
55064;DHT22;40963;52.168;21.296;2023-05-23T09:23:36;23.60;46.60
55064;DHT22;40963;52.168;21.296;2023-05-23T09:26:08;23.60;46.30
55064;DHT22;40963;52.168;21.296;2023-05-23T09:28:35;23.70;45.50
55064;DHT22;40963;52.168;21.296;2023-05-23T09:31:04;23.70;44.70
55064;DHT22;40963;52.168;21.296;2023-05-23T09:33:48;23.90;45.30
55064;DHT22;40963;52.168;21.296;2023-05-23T09:36:17;23.80;45.60
55064;DHT22;40963;52.168;21.296;2023-05-23T09:38:44;23.90;45.40
55064;DHT22;40963;52.168;21.296;2023-05-23T09:41:10;23.90;45.30
55064;DHT22;40963;52.168;21.296;2023-05-23T09:43:49;24.00;46.30
55064;DHT22;40963;52.168;21.296;2023-05-23T09:46:15;23.90;45.10
55064;DHT22;40963;52.168;21.296;2023-05-23T09:48:48;23.90;44.80
55064;DHT22;40963;52.168;21.296;2023-05-23T09:51:18;23.80;44.40
55064;DHT22;40963;52.168;21.296;2023-05-23T09:53:43;23.80;44.50
55064;DHT22;40963;52.168;21.296;2023-05-23T09:56:10;23.70;45.20
55064;DHT22;40963;52.168;21.296;2023-05-23T09:58:37;23.70;45.00
55064;DHT22;40963;52.168;21.296;2023-05-23T10:01:08;23.60;44.60
55064;DHT22;40963;52.168;21.296;2023-05-23T10:03:50;23.60;44.70
55064;DHT22;40963;52.168;21.296;2023-05-23T10:06:28;23.70;44.50
55064;DHT22;40963;52.168;21.296;2023-05-23T10:09:03;23.80;44.70
55064;DHT22;40963;52.168;21.296;2023-05-23T10:11:53;23.80;44.30
55064;DHT22;40963;52.168;21.296;2023-05-23T10:14:20;23.90;44.20
55064;DHT22;40963;52.168;21.296;2023-05-23T10:16:59;24.00;44.70
55064;DHT22;40963;52.168;21.296;2023-05-23T10:19:41;24.10;44.60
55064;DHT22;40963;52.168;21.296;2023-05-23T10:22:10;24.20;44.20
55064;DHT22;40963;52.168;21.296;2023-05-23T10:24:36;24.30;44.40
55064;DHT22;40963;52.168;21.296;2023-05-23T10:27:03;24.40;44.20
55064;DHT22;40963;52.168;21.296;2023-05-23T10:29:30;24.40;43.40
55064;DHT22;40963;52.168;21.296;2023-05-23T10:31:56;24.40;43.40
55064;DHT22;40963;52.168;21.296;2023-05-23T10:34:39;24.30;43.10
55064;DHT22;40963;52.168;21.296;2023-05-23T10:37:07;24.20;43.10
55064;DHT22;40963;52.168;21.296;2023-05-23T10:42:36;24.10;44.10
55064;DHT22;40963;52.168;21.296;2023-05-23T10:45:20;24.00;44.00
55064;DHT22;40963;52.168;21.296;2023-05-23T10:47:47;24.00;45.10
55064;DHT22;40963;52.168;21.296;2023-05-23T10:50:15;24.10;44.80
55064;DHT22;40963;52.168;21.296;2023-05-23T10:52:42;24.00;45.30
55064;DHT22;40963;52.168;21.296;2023-05-23T10:55:14;24.10;45.30
55064;DHT22;40963;52.168;21.296;2023-05-23T10:57:42;24.20;44.70
55064;DHT22;40963;52.168;21.296;2023-05-23T11:00:15;24.20;44.20
55064;DHT22;40963;52.168;21.296;2023-05-23T11:02:55;24.20;44.10
55064;DHT22;40963;52.168;21.296;2023-05-23T11:05:24;24.30;44.00
55064;DHT22;40963;52.168;21.296;2023-05-23T11:08:12;24.30;44.00
55064;DHT22;40963;52.168;21.296;2023-05-23T11:11:01;24.30;43.60
55064;DHT22;40963;52.168;21.296;2023-05-23T11:13:52;24.20;42.80
55064;DHT22;40963;52.168;21.296;2023-05-23T11:16:27;24.20;43.50
55064;DHT22;40963;52.168;21.296;2023-05-23T11:21:51;24.20;43.60
55064;DHT22;40963;52.168;21.296;2023-05-23T11:24:17;24.20;43.70
55064;DHT22;40963;52.168;21.296;2023-05-23T11:26:54;24.40;44.40
55064;DHT22;40963;52.168;21.296;2023-05-23T11:29:27;24.50;44.60
55064;DHT22;40963;52.168;21.296;2023-05-23T11:31:56;24.70;44.10
55064;DHT22;40963;52.168;21.296;2023-05-23T11:34:24;24.80;43.40
55064;DHT22;40963;52.168;21.296;2023-05-23T11:36:54;24.90;43.20
55064;DHT22;40963;52.168;21.296;2023-05-23T11:39:20;25.00;42.90
55064;DHT22;40963;52.168;21.296;2023-05-23T11:42:00;25.00;42.50
55064;DHT22;40963;52.168;21.296;2023-05-23T11:44:26;24.90;42.90
55064;DHT22;40963;52.168;21.296;2023-05-23T11:46:59;24.70;43.10
55064;DHT22;40963;52.168;21.296;2023-05-23T11:49:27;24.50;43.60
55064;DHT22;40963;52.168;21.296;2023-05-23T11:51:53;24.40;43.80
55064;DHT22;40963;52.168;21.296;2023-05-23T11:54:25;24.30;43.90
55064;DHT22;40963;52.168;21.296;2023-05-23T11:56:51;24.30;44.10
55064;DHT22;40963;52.168;21.296;2023-05-23T11:59:17;24.30;43.90
55064;DHT22;40963;52.168;21.296;2023-05-23T12:01:42;24.30;44.20
55064;DHT22;40963;52.168;21.296;2023-05-23T12:04:09;24.30;44.90
55064;DHT22;40963;52.168;21.296;2023-05-23T12:06:39;24.30;44.80
55064;DHT22;40963;52.168;21.296;2023-05-23T12:09:10;24.40;44.70
55064;DHT22;40963;52.168;21.296;2023-05-23T12:11:38;24.40;45.00
55064;DHT22;40963;52.168;21.296;2023-05-23T12:14:04;24.40;44.90
55064;DHT22;40963;52.168;21.296;2023-05-23T12:16:34;24.50;45.00
55064;DHT22;40963;52.168;21.296;2023-05-23T12:19:02;24.60;44.90
55064;DHT22;40963;52.168;21.296;2023-05-23T12:21:47;24.70;44.40
55064;DHT22;40963;52.168;21.296;2023-05-23T12:24:21;24.70;44.40
55064;DHT22;40963;52.168;21.296;2023-05-23T12:26:51;24.70;44.80
55064;DHT22;40963;52.168;21.296;2023-05-23T12:29:26;24.70;44.80
55064;DHT22;40963;52.168;21.296;2023-05-23T12:31:52;24.60;44.40
55064;DHT22;40963;52.168;21.296;2023-05-23T12:34:19;24.60;44.00
55064;DHT22;40963;52.168;21.296;2023-05-23T12:36:44;24.60;43.90
55064;DHT22;40963;52.168;21.296;2023-05-23T12:39:14;24.60;43.80
55064;DHT22;40963;52.168;21.296;2023-05-23T12:41:43;24.60;43.50
55064;DHT22;40963;52.168;21.296;2023-05-23T12:44:09;24.80;43.90
55064;DHT22;40963;52.168;21.296;2023-05-23T12:46:36;24.80;43.00
55064;DHT22;40963;52.168;21.296;2023-05-23T12:49:02;24.80;42.80
55064;DHT22;40963;52.168;21.296;2023-05-23T12:51:27;25.00;42.80
55064;DHT22;40963;52.168;21.296;2023-05-23T12:53:53;25.00;42.90
55064;DHT22;40963;52.168;21.296;2023-05-23T12:56:19;25.00;42.80
55064;DHT22;40963;52.168;21.296;2023-05-23T12:58:46;24.80;43.10
55064;DHT22;40963;52.168;21.296;2023-05-23T13:01:13;24.70;43.40
55064;DHT22;40963;52.168;21.296;2023-05-23T13:03:38;24.70;43.30
55064;DHT22;40963;52.168;21.296;2023-05-23T13:06:04;24.70;43.20
55064;DHT22;40963;52.168;21.296;2023-05-23T13:08:30;24.80;43.00
55064;DHT22;40963;52.168;21.296;2023-05-23T13:10:56;24.80;43.60
55064;DHT22;40963;52.168;21.296;2023-05-23T13:13:22;24.70;43.30
55064;DHT22;40963;52.168;21.296;2023-05-23T13:15:47;24.70;43.60
55064;DHT22;40963;52.168;21.296;2023-05-23T13:18:14;24.60;43.70
55064;DHT22;40963;52.168;21.296;2023-05-23T13:20:39;24.60;43.80
55064;DHT22;40963;52.168;21.296;2023-05-23T13:23:07;24.50;43.80
55064;DHT22;40963;52.168;21.296;2023-05-23T13:25:33;24.50;43.60
55064;DHT22;40963;52.168;21.296;2023-05-23T13:28:00;24.50;43.50
55064;DHT22;40963;52.168;21.296;2023-05-23T13:30:26;24.50;44.10
55064;DHT22;40963;52.168;21.296;2023-05-23T13:32:53;24.60;44.10
55064;DHT22;40963;52.168;21.296;2023-05-23T13:35:18;24.60;44.10
55064;DHT22;40963;52.168;21.296;2023-05-23T13:37:44;24.70;44.30
55064;DHT22;40963;52.168;21.296;2023-05-23T13:40:17;24.70;44.40
55064;DHT22;40963;52.168;21.296;2023-05-23T13:42:43;24.80;44.60
55064;DHT22;40963;52.168;21.296;2023-05-23T13:45:09;24.80;44.50
55064;DHT22;40963;52.168;21.296;2023-05-23T13:47:36;24.90;44.50
55064;DHT22;40963;52.168;21.296;2023-05-23T13:50:02;25.00;44.10
55064;DHT22;40963;52.168;21.296;2023-05-23T13:52:28;25.00;43.50
55064;DHT22;40963;52.168;21.296;2023-05-23T13:54:54;25.10;43.50
55064;DHT22;40963;52.168;21.296;2023-05-23T13:57:20;25.10;43.40
55064;DHT22;40963;52.168;21.296;2023-05-23T13:59:45;25.10;43.60
55064;DHT22;40963;52.168;21.296;2023-05-23T14:02:11;25.10;43.90
55064;DHT22;40963;52.168;21.296;2023-05-23T14:04:37;25.20;43.70
55064;DHT22;40963;52.168;21.296;2023-05-23T14:07:02;25.10;43.60
55064;DHT22;40963;52.168;21.296;2023-05-23T14:09:28;25.20;43.20
55064;DHT22;40963;52.168;21.296;2023-05-23T14:11:53;25.10;42.90
55064;DHT22;40963;52.168;21.296;2023-05-23T14:14:19;25.00;43.20
55064;DHT22;40963;52.168;21.296;2023-05-23T14:16:45;24.90;43.20
55064;DHT22;40963;52.168;21.296;2023-05-23T14:19:11;25.00;43.20
55064;DHT22;40963;52.168;21.296;2023-05-23T14:21:36;24.90;42.70
55064;DHT22;40963;52.168;21.296;2023-05-23T14:24:03;25.00;42.70
55064;DHT22;40963;52.168;21.296;2023-05-23T14:26:28;25.00;42.40
55064;DHT22;40963;52.168;21.296;2023-05-23T14:28:54;25.00;42.10
55064;DHT22;40963;52.168;21.296;2023-05-23T14:31:20;24.90;42.40
55064;DHT22;40963;52.168;21.296;2023-05-23T14:33:46;24.90;42.10
55064;DHT22;40963;52.168;21.296;2023-05-23T14:36:14;24.90;41.00
55064;DHT22;40963;52.168;21.296;2023-05-23T14:38:40;25.00;40.80
55064;DHT22;40963;52.168;21.296;2023-05-23T14:41:06;25.00;41.00
55064;DHT22;40963;52.168;21.296;2023-05-23T14:43:31;25.00;41.40
55064;DHT22;40963;52.168;21.296;2023-05-23T14:45:58;25.00;41.20
55064;DHT22;40963;52.168;21.296;2023-05-23T14:48:23;25.00;40.40
55064;DHT22;40963;52.168;21.296;2023-05-23T14:50:49;25.00;40.00
55064;DHT22;40963;52.168;21.296;2023-05-23T14:53:15;25.10;40.30
55064;DHT22;40963;52.168;21.296;2023-05-23T14:55:40;25.10;40.60
55064;DHT22;40963;52.168;21.296;2023-05-23T14:58:06;25.10;40.70
55064;DHT22;40963;52.168;21.296;2023-05-23T15:00:31;25.10;41.00
55064;DHT22;40963;52.168;21.296;2023-05-23T15:02:57;25.00;41.10
55064;DHT22;40963;52.168;21.296;2023-05-23T15:05:23;25.00;41.50
55064;DHT22;40963;52.168;21.296;2023-05-23T15:07:50;25.00;41.60
55064;DHT22;40963;52.168;21.296;2023-05-23T15:10:16;24.90;42.50
55064;DHT22;40963;52.168;21.296;2023-05-23T15:12:42;24.90;42.60
55064;DHT22;40963;52.168;21.296;2023-05-23T15:15:08;24.80;42.60
55064;DHT22;40963;52.168;21.296;2023-05-23T15:17:34;24.80;42.20
55064;DHT22;40963;52.168;21.296;2023-05-23T15:20:00;24.80;41.70
55064;DHT22;40963;52.168;21.296;2023-05-23T15:22:25;24.80;41.50
55064;DHT22;40963;52.168;21.296;2023-05-23T15:24:51;24.80;41.50
55064;DHT22;40963;52.168;21.296;2023-05-23T15:27:17;24.70;41.70
55064;DHT22;40963;52.168;21.296;2023-05-23T15:29:44;24.70;42.20
55064;DHT22;40963;52.168;21.296;2023-05-23T15:32:10;24.70;42.10
55064;DHT22;40963;52.168;21.296;2023-05-23T15:34:35;24.60;42.10